Latest Weather Observations for Wangaratta

IDV60801

Issued at 7:31 pm EST Friday 31 July 2015 (issued every 30 minutes, with the page automatically refreshed every 10 minutes)

About weather observations | Map of weather stations | Latest weather observations for VIC | Other Formats
Station Details ID: 082138 Name: WANGARATTA AERO Lat: -36.42 Lon: 146.31 Height: 152.6 m
Data from the previous 72 hours. | See also: Recent months at Wangaratta
Date/Time
EST
Temp
°C
App
Temp
°C
Dew
Point
Rel
Hum
%
Delta-T
°C
Wind Press
QNH
hPa
Press
MSL
hPa
Rain
since 9 am
mm
Dir
 
Spd
km/h
Gust
km/h
Spd
kts
Gust
kts
31/07:30pm 5.2 2.6 3.4 88 0.8 E 6 7 3 4 1019.8 1020.1 0.0
31/07:00pm 7.2 4.6 4.2 81 1.3 N 7 7 4 4 1019.5 1019.8 0.0
31/06:30pm 7.9 4.9 3.9 76 1.7 N 9 13 5 7 1019.4 1019.7 0.0
31/06:00pm 8.8 5.5 4.4 74 1.9 N 11 13 6 7 1019.1 1019.4 0.0
31/05:30pm 9.5 5.8 4.5 71 2.2 N 13 15 7 8 1018.8 1019.1 0.0
31/05:00pm 10.6 7.3 4.5 66 2.8 N 11 13 6 7 1018.6 1018.9 0.0
31/04:30pm 11.7 8.2 5.3 65 3.0 NNW 13 19 7 10 1019.1 1019.4 0.0
31/04:00pm 12.1 8.0 4.6 60 3.4 N 15 19 8 10 1018.9 1019.2 0.0
31/03:30pm 12.1 8.3 4.1 58 3.6 N 13 17 7 9 1019.1 1019.4 0.0
31/03:00pm 12.2 8.0 3.9 57 3.7 N 15 20 8 11 1019.2 1019.5 0.0
31/02:30pm 12.0 8.5 3.5 56 3.8 NNE 11 15 6 8 1019.3 1019.6 0.0
31/02:00pm 12.2 8.8 4.2 58 3.6 NNE 11 17 6 9 1019.5 1019.8 0.0
31/01:30pm 11.8 9.2 4.3 60 3.4 E 7 13 4 7 1019.9 1020.2 0.0
31/01:00pm 11.6 8.9 3.9 59 3.5 NNE 7 13 4 7 1020.3 1020.6 0.0
31/12:30pm 12.1 9.9 5.5 64 3.1 NNW 6 9 3 5 1020.9 1021.2 0.0
31/12:00pm 11.3 10.3 5.8 69 2.6 CALM 0 6 0 3 1021.4 1021.8 0.0
31/11:30am 10.1 8.3 5.5 73 2.1 NNE 4 9 2 5 1021.8 1022.2 0.0
31/11:00am 8.7 7.3 7.3 91 0.7 ENE 4 7 2 4 1021.7 1022.1 0.0
31/10:30am 7.5 6.9 7.4 99 0.0 CALM 0 0 0 0 1022.1 1022.5 0.0
31/10:00am 6.8 6.0 6.7 99 0.0 CALM 0 0 0 0 1021.8 1022.2 0.0
31/09:30am 5.9 3.8 5.8 99 0.0 SSW 6 7 3 4 1021.4 1021.8 0.0
31/09:27am 5.9 3.8 5.8 99 0.0 SSW 6 7 3 4 1021.4 1021.8 0.0
31/09:08am 4.8 3.6 4.7 99 0.0 CALM 0 0 0 0 1021.4 1021.8 0.0
31/09:03am 4.6 3.4 4.5 99 0.0 CALM 0 0 0 0 1021.4 1021.8 0.0
31/09:00am 4.5 3.3 4.4 99 0.0 CALM 0 0 0 0 1021.4 1021.8 0.6
31/08:30am 3.5 2.1 3.4 99 0.0 CALM 0 0 0 0 1021.0 1021.3 0.6
31/08:00am 2.6 -0.1 2.5 99 0.0 S 6 6 3 3 1020.5 1020.8 0.6
31/07:30am 1.9 0.2 1.8 99 0.0 CALM 0 0 0 0 1020.1 1020.4 0.6
31/07:00am 2.8 1.2 2.7 99 0.0 CALM 0 0 0 0 1019.7 1020.0 0.6
31/06:52am 2.5 0.9 2.4 99 0.0 CALM 0 6 0 3 1019.6 1019.9 0.6
31/06:46am 2.6 0.3 2.5 99 0.0 WSW 4 7 2 4 1019.6 1019.9 0.6
31/06:30am 3.0 0.3 2.9 99 0.0 SW 6 7 3 4 1019.3 1019.6 0.6
31/06:22am 3.5 0.9 3.4 99 0.0 WSW 6 7 3 4 1019.2 1019.5 0.6
31/06:09am 3.5 0.7 3.4 99 0.0 WSW 7 9 4 5 1019.2 1019.5 0.6
31/06:00am 3.4 0.6 3.3 99 0.0 W 7 9 4 5 1019.2 1019.5 0.6
31/05:53am 3.2 0.0 3.1 99 0.0 W 9 9 5 5 1019.2 1019.5 0.6
31/05:30am 3.8 1.3 3.7 99 0.0 SW 6 9 3 5 1018.9 1019.2 0.6
31/05:00am 5.6 4.6 5.5 99 0.0 CALM 0 0 0 0 1018.7 1019.0 0.6
31/04:57am 5.6 4.6 5.5 99 0.0 CALM 0 0 0 0 1018.6 1018.9 0.6
31/04:46am 5.8 4.8 5.5 98 0.1 CALM 0 0 0 0 1018.6 1018.9 0.6
31/04:44am 5.4 4.3 5.1 98 0.1 CALM 0 0 0 0 1018.6 1018.9 0.6
31/04:39am 5.7 4.7 5.4 98 0.1 CALM 0 0 0 0 1018.6 1018.9 0.6
31/04:38am 5.7 4.7 5.4 98 0.1 CALM 0 0 0 0 1018.6 1018.9 0.6
31/04:30am 6.1 5.1 5.8 98 0.1 CALM 0 0 0 0 1018.6 1018.9 0.6
31/04:29am 6.1 5.1 5.8 98 0.1 CALM 0 0 0 0 1018.6 1018.9 0.6
31/04:00am 7.6 5.9 7.5 99 0.0 S 6 9 3 5 1018.3 1018.7 0.6
31/03:30am 7.5 5.7 7.2 98 0.1 SSW 6 9 3 5 1018.3 1018.7 0.6
31/03:00am 7.8 5.8 6.9 94 0.4 WNW 7 9 4 5 1018.1 1018.5 0.6
31/02:30am 7.8 6.0 7.1 95 0.3 SW 6 6 3 3 1018.7 1019.0 0.6
31/02:00am 8.0 6.6 7.1 94 0.4 NNW 4 6 2 3 1018.7 1019.0 0.6
31/01:30am 7.8 6.4 7.1 95 0.3 S 4 9 2 5 1018.9 1019.2 0.6
31/01:00am 8.1 6.0 6.7 91 0.6 N 7 9 4 5 1018.8 1019.1 0.4
31/12:30am 8.0 5.9 6.6 91 0.6 NW 7 9 4 5 1018.9 1019.2 0.4
31/12:00am 7.8 5.9 6.7 93 0.5 NNW 6 9 3 5 1018.8 1019.1 0.0
 
Date/Time
EST
Temp
°C
App
Temp
°C
Dew
Point
Rel
Hum
%
Delta-T
°C
Wind Press
QNH
hPa
Press
MSL
hPa
Rain
since 9 am
mm
Dir
 
Spd
km/h
Gust
km/h
Spd
kts
Gust
kts
30/11:30pm 7.5 5.5 6.9 96 0.3 NNW 7 9 4 5 1019.1 1019.4 0.0
30/11:00pm 7.5 6.8 7.1 97 0.2 CALM 0 6 0 3 1019.6 1019.9 0.0
30/10:30pm 7.6 6.9 7.0 96 0.3 CALM 0 7 0 4 1019.8 1020.1 0.0
30/10:00pm 7.9 6.4 6.8 93 0.5 ESE 4 7 2 4 1019.9 1020.2 0.0
30/09:30pm 8.1 7.3 6.6 90 0.7 CALM 0 0 0 0 1020.1 1020.4 0.0
30/09:00pm 8.5 6.2 5.8 83 1.2 N 7 11 4 6 1020.0 1020.3 0.0
30/08:30pm 8.8 5.4 5.9 82 1.3 NNE 13 17 7 9 1019.8 1020.1 0.0
30/08:00pm 8.6 5.9 5.7 82 1.3 NNE 9 11 5 6 1019.8 1020.1 0.0
30/07:30pm 9.0 6.8 5.4 78 1.6 NNW 6 7 3 4 1020.2 1020.5 0.0
30/07:00pm 9.3 6.2 5.5 77 1.7 NE 11 15 6 8 1019.5 1019.8 0.0
30/06:30pm 9.5 7.1 5.1 74 2.0 N 7 9 4 5 1019.6 1019.9 0.0
30/06:00pm 9.7 6.6 5.5 75 1.9 NNE 11 13 6 7 1019.4 1019.7 0.0
30/05:30pm 9.7 5.9 5.7 76 1.8 NNE 15 19 8 10 1018.9 1019.2 0.0
30/05:00pm 9.9 6.8 5.5 74 2.0 NNE 11 15 6 8 1019.2 1019.5 0.0
30/04:30pm 10.1 6.9 5.1 71 2.3 NNW 11 15 6 8 1020.2 1020.5 0.0
30/04:00pm 10.2 5.9 5.2 71 2.3 N 17 24 9 13 1020.2 1020.5 0.0
30/03:30pm 10.3 6.3 5.1 70 2.4 N 15 19 8 10 1020.5 1020.8 0.0
30/03:00pm 10.4 5.7 5.0 69 2.5 NNW 19 26 10 14 1020.8 1021.1 0.0
30/02:30pm 11.0 6.2 4.9 66 2.8 NNW 19 28 10 15 1020.5 1020.8 0.0
30/02:00pm 10.4 5.5 4.3 66 2.7 N 19 30 10 16 1020.8 1021.1 0.0
30/01:30pm 10.6 4.9 4.9 68 2.6 N 24 33 13 18 1021.3 1021.6 0.0
30/01:00pm 11.1 6.3 5.8 70 2.5 N 20 30 11 16 1021.9 1022.3 0.0
30/12:30pm 11.2 7.0 5.7 69 2.6 NNW 17 24 9 13 1022.9 1023.3 0.0
30/12:00pm 11.4 7.7 6.3 71 2.4 NNW 15 26 8 14 1024.0 1024.4 0.0
30/11:30am 10.5 6.3 5.5 71 2.3 NNE 17 22 9 12 1023.7 1024.1 0.0
30/11:00am 9.7 7.0 5.5 75 1.9 NE 9 17 5 9 1024.5 1024.9 0.0
30/10:30am 9.2 7.8 5.6 78 1.6 N 2 9 1 5 1025.1 1025.5 0.0
30/10:00am 8.4 7.5 6.0 85 1.1 CALM 0 0 0 0 1025.4 1025.7 0.0
30/09:30am 7.6 6.9 7.0 96 0.3 CALM 0 0 0 0 1025.2 1025.6 0.0
30/09:00am 6.7 5.9 6.6 99 0.0 CALM 0 0 0 0 1025.2 1025.6 0.0
30/08:30am 6.2 5.3 6.1 99 0.0 CALM 0 0 0 0 1025.2 1025.6 0.0
30/08:00am 5.8 4.8 5.7 99 0.0 CALM 0 0 0 0 1025.6 1025.9 0.0
30/07:30am 5.6 4.6 5.5 99 0.0 CALM 0 0 0 0 1025.6 1025.9 0.0
30/07:00am 5.6 4.6 5.5 99 0.0 CALM 0 0 0 0 1025.8 1026.1 0.0
30/06:30am 5.7 4.7 5.6 99 0.0 CALM 0 0 0 0 1025.9 1026.2 0.0
30/06:00am 5.6 4.6 5.5 99 0.0 CALM 0 0 0 0 1026.1 1026.4 0.0
30/05:30am 5.7 4.7 5.6 99 0.0 CALM 0 0 0 0 1025.9 1026.2 0.0
30/05:00am 5.7 4.7 5.6 99 0.0 CALM 0 0 0 0 1026.2 1026.5 0.0
30/04:30am 5.5 4.5 5.4 99 0.0 CALM 0 0 0 0 1026.2 1026.5 0.0
30/04:00am 5.5 4.5 5.4 99 0.0 CALM 0 0 0 0 1026.4 1026.7 0.0
30/03:30am 5.6 4.6 5.5 99 0.0 CALM 0 0 0 0 1026.8 1027.1 0.0
30/03:00am 5.7 4.7 5.4 98 0.1 CALM 0 0 0 0 1027.3 1027.7 0.0
30/02:30am 5.7 4.7 5.4 98 0.1 CALM 0 0 0 0 1027.6 1028.0 0.0
30/02:00am 6.0 5.0 5.7 98 0.1 CALM 0 0 0 0 1027.8 1028.2 0.0
30/01:30am 6.0 5.0 5.7 98 0.1 CALM 0 0 0 0 1028.0 1028.4 0.0
30/01:00am 5.9 4.9 5.6 98 0.1 CALM 0 0 0 0 1028.3 1028.7 0.0
30/12:30am 6.0 5.0 5.6 97 0.2 CALM 0 0 0 0 1028.6 1029.0 0.0
30/12:00am 6.1 4.4 5.8 98 0.1 WSW 4 7 2 4 1029.0 1029.4 0.0
 
Date/Time
EST
Temp
°C
App
Temp
°C
Dew
Point
Rel
Hum
%
Delta-T
°C
Wind Press
QNH
hPa
Press
MSL
hPa
Rain
since 9 am
mm
Dir
 
Spd
km/h
Gust
km/h
Spd
kts
Gust
kts
29/11:30pm 6.2 5.3 5.9 98 0.1 CALM 0 0 0 0 1029.1 1029.5 0.0
29/11:00pm 6.1 5.1 5.7 97 0.2 CALM 0 0 0 0 1029.3 1029.7 0.0
29/10:30pm 6.0 5.0 5.6 97 0.2 CALM 0 0 0 0 1029.7 1030.1 0.0
29/10:00pm 6.0 5.0 5.6 97 0.2 CALM 0 0 0 0 1029.8 1030.2 0.0
29/09:30pm 6.0 3.9 5.7 98 0.1 S 6 7 3 4 1029.5 1029.9 0.0
29/09:00pm 5.2 2.9 4.8 97 0.2 SSW 6 7 3 4 1029.9 1030.3 0.0
29/08:30pm 4.9 2.9 4.3 96 0.3 WNW 4 9 2 5 1029.7 1030.1 0.0
29/08:00pm 5.4 2.9 4.7 95 0.3 NE 7 9 4 5 1029.7 1030.1 0.0
29/07:30pm 5.5 3.9 4.5 93 0.4 NE 2 6 1 3 1030.0 1030.4 0.0
29/07:00pm 5.9 3.5 4.5 91 0.6 ENE 6 7 3 4 1030.0 1030.4 0.0
29/06:30pm 6.8 5.7 5.1 89 0.8 CALM 0 0 0 0 1029.9 1030.3 0.0
29/06:00pm 8.0 6.1 5.1 82 1.3 N 4 6 2 3 1029.6 1030.0 0.0
29/05:30pm 9.2 7.7 5.2 76 1.8 NNW 2 6 1 3 1029.5 1029.9 0.0
29/05:00pm 10.1 7.8 5.5 73 2.1 NE 7 9 4 5 1029.6 1030.0 0.0
29/04:30pm 10.8 8.9 4.9 67 2.7 WNW 4 6 2 3 1030.0 1030.4 0.0
29/04:00pm 10.9 8.5 5.4 69 2.5 WNW 7 9 4 5 1030.5 1030.9 0.0
29/03:30pm 11.1 8.3 5.2 67 2.7 NW 9 13 5 7 1030.7 1031.1 0.0
29/03:00pm 11.2 8.4 5.3 67 2.7 NNW 9 13 5 7 1030.8 1031.2 0.0
29/02:30pm 11.6 8.9 5.7 67 2.8 NNE 9 15 5 8 1030.9 1031.3 0.0
29/02:00pm 10.8 7.9 6.6 75 2.0 NNE 11 15 6 8 1031.0 1031.4 0.0
29/01:30pm 10.7 7.7 6.1 73 2.2 NNE 11 13 6 7 1031.8 1032.2 0.0
29/01:00pm 10.6 8.5 6.6 76 1.9 NW 7 9 4 5 1033.0 1033.4 0.0
29/12:30pm 10.2 8.3 6.7 79 1.7 NE 6 9 3 5 1033.0 1033.4 0.0
29/12:00pm 9.0 7.2 7.1 88 0.9 NNW 6 9 3 5 1033.8 1034.2 0.0
29/11:53am 8.8 8.1 8.5 98 0.1 N 2 7 1 4 1033.8 1034.2 0.0
29/11:30am 7.5 5.8 7.4 99 0.0 E 6 7 3 4 1034.0 1034.4 0.0
29/11:14am 6.4 4.8 6.3 99 0.0 ENE 4 6 2 3 1034.6 1035.0 0.0
29/11:00am 5.8 4.1 5.7 99 0.0 ESE 4 7 2 4 1034.9 1035.3 0.0
29/10:47am 5.6 3.4 5.5 99 0.0 ESE 6 7 3 4 1035.1 1035.5 0.0
29/10:30am 5.1 3.6 5.0 99 0.0 ESE 2 7 1 4 1035.0 1035.4 0.0
29/10:00am 3.6 1.8 3.5 99 0.0 SE 2 6 1 3 1035.3 1035.7 0.0
29/09:30am 3.0 1.5 2.9 99 0.0 CALM 0 0 0 0 1035.2 1035.6 0.0
29/09:00am 2.3 0.7 2.2 99 0.0 CALM 0 0 0 0 1034.9 1035.3 0.0
29/08:30am 1.5 -1.4 1.4 99 0.0 SSE 6 7 3 4 1035.0 1035.4 0.0
29/08:00am 1.3 -0.5 1.2 99 0.0 CALM 0 0 0 0 1035.0 1035.4 0.0
29/07:30am 1.1 -0.7 1.0 99 0.0 CALM 0 0 0 0 1034.7 1035.1 0.0
29/07:00am 0.9 -1.0 0.8 99 0.0 CALM 0 0 0 0 1034.5 1034.9 0.0
29/06:30am 0.4 -1.5 0.3 99 0.0 CALM 0 0 0 0 1034.2 1034.6 0.0
29/06:18am 0.6 -1.3 0.5 99 0.0 CALM 0 0 0 0 1034.1 1034.5 0.0
29/06:11am 0.9 -1.0 0.8 99 0.0 CALM 0 0 0 0 1034.1 1034.5 0.0
29/06:00am 0.9 -1.0 0.8 99 0.0 CALM 0 0 0 0 1034.0 1034.4 0.0
29/05:30am 1.0 -0.8 0.9 99 0.0 CALM 0 0 0 0 1033.8 1034.2 0.0
29/05:00am 0.5 -1.4 0.4 99 0.0 CALM 0 0 0 0 1033.7 1034.1 0.0
29/04:39am 0.9 -1.0 0.8 99 0.0 CALM 0 0 0 0 1033.7 1034.1 0.0
29/04:36am 1.2 -0.6 1.1 99 0.0 CALM 0 0 0 0 1033.7 1034.1 0.0
29/04:30am 1.2 -0.6 1.1 99 0.0 CALM 0 0 0 0 1033.7 1034.1 0.0
29/04:00am 2.3 0.7 2.2 99 0.0 CALM 0 0 0 0 1033.8 1034.2 0.0
29/03:30am 2.6 1.0 2.5 99 0.0 CALM 0 0 0 0 1033.8 1034.2 0.0
29/03:00am 2.0 0.3 1.9 99 0.0 CALM 0 0 0 0 1033.3 1033.7 0.0
29/02:30am 1.8 0.1 1.7 99 0.0 CALM 0 0 0 0 1033.3 1033.7 0.0
29/02:15am 2.4 0.8 2.3 99 0.0 CALM 0 0 0 0 1033.5 1033.9 0.0
29/02:13am 2.5 0.9 2.4 99 0.0 CALM 0 0 0 0 1033.5 1033.9 0.0
29/02:00am 2.9 1.4 2.8 99 0.0 CALM 0 0 0 0 1033.6 1034.0 0.0
29/01:30am 3.6 1.8 3.5 99 0.0 SSW 2 6 1 3 1034.3 1034.7 0.0
29/01:26am 3.9 2.5 3.8 99 0.0 CALM 0 0 0 0 1034.2 1034.6 0.0
29/01:17am 3.9 2.5 3.8 99 0.0 CALM 0 0 0 0 1034.2 1034.6 0.0
29/01:00am 4.1 2.8 4.0 99 0.0 CALM 0 0 0 0 1034.1 1034.5 0.0
29/12:30am 4.4 3.1 4.3 99 0.0 CALM 0 0 0 0 1034.2 1034.6 0.0
29/12:00am 4.5 3.3 4.4 99 0.0 CALM 0 0 0 0 1034.4 1034.8 0.0
 
Date/Time
EST
Temp
°C
App
Temp
°C
Dew
Point
Rel
Hum
%
Delta-T
°C
Wind Press
QNH
hPa
Press
MSL
hPa
Rain
since 9 am
mm
Dir
 
Spd
km/h
Gust
km/h
Spd
kts
Gust
kts
28/11:30pm 4.0 2.7 3.9 99 0.0 CALM 0 0 0 0 1034.5 1034.9 0.0
28/11:14pm 3.3 1.8 3.2 99 0.0 CALM 0 0 0 0 1034.5 1034.9 0.0
28/11:00pm 3.3 1.8 3.2 99 0.0 CALM 0 0 0 0 1034.4 1034.8 0.0
28/10:48pm 3.2 1.7 3.1 99 0.0 CALM 0 0 0 0 1034.4 1034.8 0.0
28/10:40pm 3.1 1.2 3.0 99 0.0 E 2 6 1 3 1034.4 1034.8 0.0
28/10:30pm 3.2 1.0 3.1 99 0.0 E 4 6 2 3 1034.4 1034.8 0.0
28/10:04pm 3.0 0.1 2.7 98 0.1 ESE 7 9 4 5 1034.3 1034.7 0.0
28/10:00pm 3.0 0.1 2.7 98 0.1 ESE 7 9 4 5 1034.3 1034.7 0.0
28/09:52pm 3.5 0.9 3.2 98 0.1 E 6 7 3 4 1034.4 1034.8 0.0
28/09:46pm 3.9 1.7 3.6 98 0.1 ENE 4 7 2 4 1034.5 1034.9 0.0
28/09:30pm 4.0 1.9 3.7 98 0.1 E 4 6 2 3 1034.5 1034.9 0.0
28/09:00pm 4.3 2.6 3.9 97 0.2 NE 2 7 1 4 1034.3 1034.7 0.0
28/08:30pm 5.4 4.2 4.8 96 0.3 CALM 0 0 0 0 1034.5 1034.9 0.0
28/08:00pm 5.5 3.9 4.6 94 0.4 E 2 6 1 3 1034.4 1034.8 0.0

Other Formats:

Comma delimited format used in spreadsheet applications
http://www.bom.gov.au/fwo/IDV60801/IDV60801.94889.axf

JavaScript Object Notation format (JSON) in row-major order
http://www.bom.gov.au/fwo/IDV60801/IDV60801.94889.json